地図

経路データ

SID SEASON NUMBER BASIN SUBBASIN NAME ISO_TIME NATURE LAT LON WMO_WIND WMO_PRES WMO_AGENCY TRACK_TYPE DIST2LAND LANDFALL IFLAG USA_AGENCY USA_ATCF_ID USA_LAT USA_LON USA_RECORD USA_STATUS USA_WIND USA_PRES USA_SSHS USA_R34_NE USA_R34_SE USA_R34_SW USA_R34_NW USA_R50_NE USA_R50_SE USA_R50_SW USA_R50_NW USA_R64_NE USA_R64_SE USA_R64_SW USA_R64_NW USA_POCI USA_ROCI USA_RMW USA_EYE TOKYO_LAT TOKYO_LON TOKYO_GRADE TOKYO_WIND TOKYO_PRES TOKYO_R50_DIR TOKYO_R50_LONG TOKYO_R50_SHORT TOKYO_R30_DIR TOKYO_R30_LONG TOKYO_R30_SHORT TOKYO_LAND CMA_LAT CMA_LON CMA_CAT CMA_WIND CMA_PRES HKO_LAT HKO_LON HKO_CAT HKO_WIND HKO_PRES NEWDELHI_LAT NEWDELHI_LON NEWDELHI_GRADE NEWDELHI_WIND NEWDELHI_PRES NEWDELHI_CI NEWDELHI_DP NEWDELHI_POCI REUNION_LAT REUNION_LON REUNION_TYPE REUNION_WIND REUNION_PRES REUNION_TNUM REUNION_CI REUNION_RMW REUNION_R34_NE REUNION_R34_SE REUNION_R34_SW REUNION_R34_NW REUNION_R50_NE REUNION_R50_SE REUNION_R50_SW REUNION_R50_NW REUNION_R64_NE REUNION_R64_SE REUNION_R64_SW REUNION_R64_NW BOM_LAT BOM_LON BOM_TYPE BOM_WIND BOM_PRES BOM_TNUM BOM_CI BOM_RMW BOM_R34_NE BOM_R34_SE BOM_R34_SW BOM_R34_NW BOM_R50_NE BOM_R50_SE BOM_R50_SW BOM_R50_NW BOM_R64_NE BOM_R64_SE BOM_R64_SW BOM_R64_NW BOM_ROCI BOM_POCI BOM_EYE BOM_POS_METHOD BOM_PRES_METHOD NADI_LAT NADI_LON NADI_CAT NADI_WIND NADI_PRES WELLINGTON_LAT WELLINGTON_LON WELLINGTON_WIND WELLINGTON_PRES DS824_LAT DS824_LON DS824_STAGE DS824_WIND DS824_PRES TD9636_LAT TD9636_LON TD9636_STAGE TD9636_WIND TD9636_PRES TD9635_LAT TD9635_LON TD9635_WIND TD9635_PRES TD9635_ROCI NEUMANN_LAT NEUMANN_LON NEUMANN_CLASS NEUMANN_WIND NEUMANN_PRES MLC_LAT MLC_LON MLC_CLASS MLC_WIND MLC_PRES USA_GUST BOM_GUST BOM_GUST_PER REUNION_GUST REUNION_GUST_PER USA_SEAHGT USA_SEARAD_NE USA_SEARAD_SE USA_SEARAD_SW USA_SEARAD_NW STORM_SPEED STORM_DIR
1859070S05088 1859 7 SI MM NOT_NAMED 1859-03-11 06:00:00 NR -4.50000 88.4000 spur-split 1144 1144 _____O________ -1 -4.50000 88.4000 99 9.90000 3 223
1859070S05088 1859 7 SI MM NOT_NAMED 1859-03-11 09:00:00 NR -4.60094 88.3122 spur-split 1160 1160 _____P________ -1 -4.60094 88.3122 99 3 221
1859070S05088 1859 7 SI MM NOT_NAMED 1859-03-11 12:00:00 NR -4.70299 88.2244 spur-split 1176 1176 _____P________ -1 -4.70299 88.2244 99 3 220
1859070S05088 1859 7 SI MM NOT_NAMED 1859-03-11 15:00:00 NR -4.80724 88.1366 spur-split 1192 1192 _____P________ -1 -4.80724 88.1366 99 3 220
1859070S05088 1859 7 SI MM NOT_NAMED 1859-03-11 18:00:00 NR -4.91480 88.0489 spur-split 1207 1207 _____P________ -1 -4.91480 88.0489 99 3 218
1859070S05088 1859 7 SI MM NOT_NAMED 1859-03-11 21:00:00 NR -5.02675 87.9614 spur-split 1215 1215 _____P________ -1 -5.02675 87.9614 99 3 217
1859070S05088 1859 7 SI MM NOT_NAMED 1859-03-12 00:00:00 NR -5.14421 87.8740 spur-split 1231 1231 _____P________ -1 -5.14421 87.8740 99 3 215
1859070S05088 1859 7 SI MM NOT_NAMED 1859-03-12 03:00:00 NR -5.26826 87.7869 spur-split 1255 1255 _____P________ -1 -5.26826 87.7869 99 3 214
1859070S05088 1859 7 SI MM NOT_NAMED 1859-03-12 06:00:00 NR -5.40000 87.7000 spur-split 1270 1270 _____O________ -1 -5.40000 87.7000 99 9.90000 3 212
1859070S05088 1859 7 SI MM NOT_NAMED 1859-03-12 09:00:00 NR -5.54156 87.6126 spur-split 1286 1286 _____P________ -1 -5.54156 87.6126 99 4 210
1859070S05088 1859 7 SI MM NOT_NAMED 1859-03-12 12:00:00 NR -5.69928 87.5207 spur-split 1310 1310 _____P________ -1 -5.69928 87.5207 99 4 210
1859070S05088 1859 7 SI MM NOT_NAMED 1859-03-12 15:00:00 NR -5.88055 87.4194 spur-split 1333 1333 _____P________ -1 -5.88055 87.4194 99 5 209
1859070S05088 1859 7 SI MM NOT_NAMED 1859-03-12 18:00:00 NR -6.09277 87.3039 spur-split 1357 1357 _____P________ -1 -6.09277 87.3039 99 5 208
1859070S05088 1859 7 SI MM NOT_NAMED 1859-03-12 21:00:00 NR -6.34337 87.1691 spur-split 1381 1381 _____P________ -1 -6.34337 87.1691 99 6 208
1859070S05088 1859 7 SI MM NOT_NAMED 1859-03-13 00:00:00 NR -6.63979 87.0103 spur-split 1420 1420 _____P________ -1 -6.63979 87.0103 99 7 208
1859070S05088 1859 7 SI MM NOT_NAMED 1859-03-13 03:00:00 NR -6.98950 86.8222 spur-split 1461 1461 _____P________ -1 -6.98950 86.8222 99 9 208
1859070S05088 1859 7 SI MM NOT_NAMED 1859-03-13 06:00:00 NR -7.40000 86.6000 spur-split 1501 1501 _____O________ -1 -7.40000 86.6000 99 9.90000 10 208
1859070S05088 1859 7 SI MM NOT_NAMED 1859-03-13 09:00:00 NR -7.86510 86.3433 spur-split 1556 1556 _____P________ -1 -7.86510 86.3433 99 11 209
1859070S05088 1859 7 SI MM NOT_NAMED 1859-03-13 12:00:00 NR -8.39093 86.0524 spur-split 1603 1603 _____P________ -1 -8.39093 86.0524 99 13 209
1859070S05088 1859 7 SI MM NOT_NAMED 1859-03-13 15:00:00 NR -8.96989 85.7311 spur-split 1675 1675 _____P________ -1 -8.96989 85.7311 99 14 209
1859070S05088 1859 7 SI MM NOT_NAMED 1859-03-13 18:00:00 NR -9.59445 85.3832 spur-split 1736 1736 _____P________ -1 -9.59445 85.3832 99 15 209
1859070S05088 1859 7 SI MM NOT_NAMED 1859-03-13 21:00:00 NR -10.2571 85.0124 spur-split 1814 1814 _____P________ -1 -10.2571 85.0124 99 16 209
1859070S05088 1859 7 SI MM NOT_NAMED 1859-03-14 00:00:00 NR -10.9505 84.6225 spur-split 1892 1892 _____P________ -1 -10.9505 84.6225 99 16 209
1859070S05088 1859 7 SI MM NOT_NAMED 1859-03-14 03:00:00 NR -11.6672 84.2171 spur-split 1971 1971 _____P________ -1 -11.6672 84.2171 99 17 209
1859070S05088 1859 7 SI MM NOT_NAMED 1859-03-14 06:00:00 NR -12.4000 83.8000 spur-split 2051 2051 _____O________ -1 -12.4000 83.8000 99 9.90000 17 209
1859070S05088 1859 7 SI MM NOT_NAMED 1859-03-14 09:00:00 NR -13.1363 83.3718 spur-split 2132 2132 _____P________ -1 -13.1363 83.3718 99 17 210
1859070S05088 1859 7 SI MM NOT_NAMED 1859-03-14 12:00:00 NR -13.8992 82.9243 spur-split 2228 2228 _____P________ -1 -13.8992 82.9243 99 18 210
1859070S05088 1859 7 SI MM NOT_NAMED 1859-03-14 15:00:00 NR -14.6791 82.4640 spur-split 2317 2316 _____P________ -1 -14.6791 82.4640 99 18 210
1859070S05088 1859 7 SI MM NOT_NAMED 1859-03-14 18:00:00 NR -15.4663 81.9971 spur-split 2402 2402 _____P________ -1 -15.4663 81.9971 99 18 210
1859070S05088 1859 7 SI MM NOT_NAMED 1859-03-14 21:00:00 NR -16.2515 81.5304 spur-split 2488 2480 _____P________ -1 -16.2515 81.5304 99 18 210
1859070S05088 1859 7 SI MM NOT_NAMED 1859-03-15 00:00:00 NR -17.0251 81.0706 spur-split 2480 2412 _____P________ -1 -17.0251 81.0706 99 18 210
1859070S05088 1859 7 SI MM NOT_NAMED 1859-03-15 03:00:00 NR -17.7777 80.6247 spur-split 2410 2356 _____P________ -1 -17.7777 80.6247 99 17 209
1859070S05088 1859 7 SI MM NOT_NAMED 1859-03-15 06:00:00 NR -18.5000 80.2000 spur-split 2356 2303 _____O________ -1 -18.5000 80.2000 99 9.90000 17 209
1859070S05088 1859 7 SI MM NOT_NAMED 1859-03-15 09:00:00 NR -19.2317 79.7795 spur-split 2303 2254 _____P________ -1 -19.2317 79.7795 99 17 208
1859070S05088 1859 7 SI MM NOT_NAMED 1859-03-15 12:00:00 NR -19.9455 79.3733 spur-split 2254 2207 _____P________ -1 -19.9455 79.3733 99 16 208
1859070S05088 1859 7 SI MM NOT_NAMED 1859-03-15 15:00:00 NR -20.6315 78.9859 spur-split 2207 2163 _____P________ -1 -20.6315 78.9859 99 15 208
1859070S05088 1859 7 SI MM NOT_NAMED 1859-03-15 18:00:00 NR -21.2800 78.6219 spur-split 2163 2132 _____P________ -1 -21.2800 78.6219 99 14 208
1859070S05088 1859 7 SI MM NOT_NAMED 1859-03-15 21:00:00 NR -21.8810 78.2862 spur-split 2132 2102 _____P________ -1 -21.8810 78.2862 99 13 207
1859070S05088 1859 7 SI MM NOT_NAMED 1859-03-16 00:00:00 NR -22.4246 77.9838 spur-split 2103 2075 _____P________ -1 -22.4246 77.9838 99 12 207
1859070S05088 1859 7 SI MM NOT_NAMED 1859-03-16 03:00:00 NR -22.9010 77.7199 spur-split 2075 2058 _____P________ -1 -22.9010 77.7199 99 10 207
1859070S05088 1859 7 SI MM NOT_NAMED 1859-03-16 06:00:00 NR -23.3000 77.5000 reunion spur-split 2059 2042 _____O________ -1 -23.3000 77.5000 99 9.90000 8 207
1859070S05088 1859 7 SI MM NOT_NAMED 1859-03-16 09:00:00 NR -23.6153 77.3275 spur-split 2042 2034 _____P________ -1 -23.6153 77.3275 99 6 206
1859070S05088 1859 7 SI MM NOT_NAMED 1859-03-16 12:00:00 NR -23.8543 77.1986 spur-split 2036 2027 _____P________ -1 -23.8543 77.1986 99 5 206
1859070S05088 1859 7 SI MM NOT_NAMED 1859-03-16 15:00:00 NR -24.0281 77.1074 spur-split 2027 2027 _____P________ -1 -24.0281 77.1074 99 3 205
1859070S05088 1859 7 SI MM NOT_NAMED 1859-03-16 18:00:00 NR -24.1476 77.0478 spur-split 2019 2019 _____P________ -1 -24.1476 77.0478 99 2 203
1859070S05088 1859 7 SI MM NOT_NAMED 1859-03-16 21:00:00 NR -24.2236 77.0136 spur-split 2020 2020 _____P________ -1 -24.2236 77.0136 99 1 197
1859070S05088 1859 7 SI MM NOT_NAMED 1859-03-17 00:00:00 NR -24.2672 76.9984 spur-split 2022 2022 _____P________ -1 -24.2672 76.9984 99 1 197
1859070S05088 1859 7 SI MM NOT_NAMED 1859-03-17 03:00:00 NR -24.2890 76.9960 spur-split 2022 2022 _____P________ -1 -24.2890 76.9960 99 0 146
1859070S05088 1859 7 SI MM NOT_NAMED 1859-03-17 06:00:00 NR -24.3000 77.0000 reunion spur-split 2022 _____O________ -1 -24.3000 77.0000 99 9.90000 0 0

IBTrACS Databaseについて

本データベースは、米国NOAAが公開する1842年以降の世界の熱帯低気圧のベストトラックデータアーカイブInternational Best Track Archive for Climate Stewardship (IBTrACS)を、ウェブで閲覧しやすい形式に変換したものです。

最終更新日:2021-11-26